Aviation Digital Data Service (ADDS)

Output produced by METARs form (1124 UTC 19 February 2019)
found at http://www.aviationweather.gov/metar/data/
 
Forecast for: VABB (BOMBAY/SANTACRUZ, IN)
Text: TAF VABB 191100Z 1912/1921 28008KT 5000 FU NSC
Forecast period: 1200 to 1500 UTC 19 February 2019
Forecast type: FROM: standard forecast or significant change
Winds: from the W (280 degrees) at 9 MPH (8 knots; 4.1 m/s)
Visibility: 3 miles (5 km)
Ceiling: unknown
Clouds: missing
Weather: FU  (smoke)
Text: BECMG 1915/1917 34005KT 4000 FU
Forecast period: 1500 to 1800 UTC 19 February 2019
Forecast type: BECOMING: Conditions expected to become as follows by 1700 UTC 19 February 2019
Winds: from the NNW (340 degrees) at 6 MPH (5 knots; 2.6 m/s)
Visibility: 2.49 miles (4.01 km)
Ceiling: unknown
Clouds: missing
Weather: FU  (smoke)
Text: BECMG 1918/1920 VRB03KT
Forecast period: 1800 to 2100 UTC 19 February 2019
Forecast type: BECOMING: Conditions expected to become as follows by 2000 UTC 19 February 2019
Winds: variable direction winds at 3 MPH (3 knots; 1.5 m/s)
Visibility: 2.49 miles (4.01 km)
Ceiling: unknown
Clouds: missing
Weather: FU  (smoke)